createdAt,value
2022-09-23T00:02:10.876Z,15.80
2022-09-23T00:04:39.054Z,15.80
2022-09-23T00:07:08.871Z,15.80
2022-09-23T00:09:36.966Z,15.80
2022-09-23T00:12:08.805Z,15.80
2022-09-23T00:14:38.756Z,15.70
2022-09-23T00:17:07.140Z,15.70
2022-09-23T00:19:35.375Z,15.70
2022-09-23T00:22:03.552Z,15.70
2022-09-23T00:24:33.387Z,15.70
2022-09-23T00:27:01.883Z,15.70
2022-09-23T00:29:30.312Z,15.60
2022-09-23T00:31:58.597Z,15.60
2022-09-23T00:34:26.780Z,15.60
2022-09-23T00:36:54.980Z,15.60
2022-09-23T00:39:23.186Z,15.60
2022-09-23T00:41:52.731Z,15.60
2022-09-23T00:44:42.853Z,15.60
2022-09-23T00:47:16.064Z,15.50
2022-09-23T00:49:48.982Z,15.50
2022-09-23T00:52:20.128Z,15.50
2022-09-23T00:54:49.188Z,15.50
2022-09-23T00:57:20.228Z,15.40
2022-09-23T00:59:50.789Z,15.40
2022-09-23T01:02:21.775Z,15.40
2022-09-23T01:04:51.453Z,15.40
2022-09-23T01:07:20.705Z,15.40
2022-09-23T01:09:49.869Z,15.30
2022-09-23T01:12:36.583Z,15.30
2022-09-23T01:15:16.316Z,15.30
2022-09-23T01:17:52.821Z,15.30
2022-09-23T01:20:54.278Z,15.30
2022-09-23T01:23:54.035Z,15.30
2022-09-23T01:26:41.441Z,15.20
2022-09-23T01:29:36.255Z,15.20
2022-09-23T01:32:10.466Z,15.20
2022-09-23T01:34:48.960Z,15.10
2022-09-23T01:37:25.136Z,15.10
2022-09-23T01:40:03.957Z,15.10
2022-09-23T01:42:39.479Z,15.10
2022-09-23T01:45:15.499Z,15.00
2022-09-23T01:47:51.511Z,15.00
2022-09-23T01:50:40.654Z,15.00
2022-09-23T01:53:18.272Z,15.00
2022-09-23T01:55:50.460Z,15.00
2022-09-23T01:58:24.392Z,15.00
2022-09-23T02:00:57.953Z,14.90
2022-09-23T02:03:33.463Z,14.90
2022-09-23T02:06:06.043Z,14.90
2022-09-23T02:08:39.262Z,14.90
2022-09-23T02:11:11.680Z,14.90
2022-09-23T02:13:46.714Z,14.90
2022-09-23T02:16:23.248Z,14.90
2022-09-23T02:18:58.048Z,14.80
2022-09-23T02:21:30.899Z,14.80
2022-09-23T02:24:05.375Z,14.80
2022-09-23T02:26:38.567Z,14.80
2022-09-23T02:29:15.389Z,14.80
2022-09-23T02:31:47.131Z,14.70
2022-09-23T02:34:23.350Z,14.70
2022-09-23T02:37:03.132Z,14.70
2022-09-23T02:39:39.211Z,14.70
2022-09-23T02:42:11.538Z,14.70
2022-09-23T02:44:40.618Z,14.70
2022-09-23T02:47:10.650Z,14.70
2022-09-23T02:49:40.159Z,14.60
2022-09-23T02:52:08.547Z,14.70
2022-09-23T02:54:37.968Z,14.70
2022-09-23T02:57:09.307Z,14.60
2022-09-23T02:59:38.347Z,14.60
2022-09-23T03:02:26.726Z,14.60
2022-09-23T03:05:03.898Z,14.60
2022-09-23T03:07:40.274Z,14.60
2022-09-23T03:10:16.673Z,14.50
2022-09-23T03:12:53.011Z,14.50
2022-09-23T03:15:28.157Z,14.50
2022-09-23T03:18:02.524Z,14.50
2022-09-23T03:20:35.423Z,14.50
2022-09-23T03:23:09.319Z,14.50
2022-09-23T03:25:40.357Z,14.50
2022-09-23T03:28:09.997Z,14.50
2022-09-23T03:30:38.925Z,14.50
2022-09-23T03:33:10.385Z,14.50
2022-09-23T03:35:59.748Z,14.50
2022-09-23T03:38:33.008Z,14.50
2022-09-23T03:41:04.290Z,14.50
2022-09-23T03:43:36.593Z,14.50
2022-09-23T03:46:07.364Z,14.40
2022-09-23T03:48:35.653Z,14.40
2022-09-23T03:51:20.288Z,14.40
2022-09-23T03:53:49.184Z,14.50
2022-09-23T03:56:17.634Z,14.40
2022-09-23T03:58:46.598Z,14.40
2022-09-23T04:01:15.930Z,14.40
2022-09-23T04:03:44.234Z,14.40
2022-09-23T04:06:14.166Z,14.40
2022-09-23T04:08:42.341Z,14.40
2022-09-23T04:11:10.504Z,14.40
2022-09-23T04:13:38.680Z,14.40
2022-09-23T04:16:07.349Z,14.40
2022-09-23T04:18:35.522Z,14.40
2022-09-23T04:21:03.604Z,14.40
2022-09-23T04:23:33.026Z,14.40
2022-09-23T04:26:01.124Z,14.40
2022-09-23T04:28:29.251Z,14.40
2022-09-23T04:30:57.867Z,14.30
2022-09-23T04:33:26.776Z,14.40
2022-09-23T04:35:56.741Z,14.30
2022-09-23T04:38:24.980Z,14.30
2022-09-23T04:40:54.756Z,14.30
2022-09-23T04:43:24.090Z,14.30
2022-09-23T04:46:00.282Z,14.30
2022-09-23T04:48:28.837Z,14.30
2022-09-23T04:51:03.691Z,14.30
2022-09-23T04:53:32.102Z,14.40
2022-09-23T04:56:04.602Z,14.30
2022-09-23T04:58:33.711Z,14.30
2022-09-23T05:01:10.255Z,14.40
2022-09-23T05:03:38.928Z,14.30
2022-09-23T05:06:07.687Z,14.30
2022-09-23T05:08:36.097Z,14.30
2022-09-23T05:11:06.372Z,14.30
2022-09-23T05:13:35.355Z,14.30
2022-09-23T05:16:04.952Z,14.30
2022-09-23T05:18:33.590Z,14.30
2022-09-23T05:21:01.972Z,14.30
2022-09-23T05:23:31.964Z,14.30
2022-09-23T05:26:01.471Z,14.30
2022-09-23T05:28:33.331Z,14.20
2022-09-23T05:31:05.462Z,14.30
2022-09-23T05:33:34.277Z,14.20
2022-09-23T05:36:03.237Z,14.20
2022-09-23T05:38:32.441Z,14.20
2022-09-23T05:41:01.931Z,14.20
2022-09-23T05:43:32.318Z,14.20
2022-09-23T05:46:08.240Z,14.20
2022-09-23T05:48:38.130Z,14.20
2022-09-23T05:51:09.146Z,14.20
2022-09-23T05:53:38.111Z,14.20
2022-09-23T05:56:06.922Z,14.20
2022-09-23T05:58:36.442Z,14.30
2022-09-23T06:01:11.437Z,14.30
2022-09-23T06:03:40.041Z,14.30
2022-09-23T06:06:08.685Z,14.30
2022-09-23T06:08:37.807Z,14.30
2022-09-23T06:11:08.330Z,14.30
2022-09-23T06:13:38.961Z,14.40
2022-09-23T06:16:08.090Z,14.40
2022-09-23T06:18:36.430Z,14.40
2022-09-23T06:21:05.636Z,14.50
2022-09-23T06:23:37.763Z,14.50
2022-09-23T06:26:09.745Z,14.50
2022-09-23T06:28:40.773Z,14.50
2022-09-23T06:31:13.709Z,14.60
2022-09-23T06:33:43.338Z,14.60
2022-09-23T06:36:12.564Z,14.60
2022-09-23T06:38:41.790Z,14.60
2022-09-23T06:41:09.947Z,14.70
2022-09-23T06:43:39.594Z,14.70
2022-09-23T06:46:08.844Z,14.70
2022-09-23T06:48:37.189Z,14.80
2022-09-23T06:51:07.765Z,14.80
2022-09-23T06:53:37.136Z,14.90
2022-09-23T06:56:07.937Z,14.90
2022-09-23T06:58:38.095Z,14.90
2022-09-23T07:01:10.021Z,14.90
2022-09-23T07:03:38.593Z,15.00
2022-09-23T07:06:08.060Z,15.00
2022-09-23T07:08:37.517Z,15.00
2022-09-23T07:11:07.637Z,15.10
2022-09-23T07:13:37.310Z,15.10
2022-09-23T07:16:07.074Z,15.20
2022-09-23T07:18:37.383Z,15.20
2022-09-23T07:21:11.563Z,15.20
2022-09-23T07:23:39.683Z,15.30
2022-09-23T07:26:08.914Z,15.30
2022-09-23T07:28:37.268Z,15.40
2022-09-23T07:31:12.484Z,15.40
2022-09-23T07:33:44.276Z,15.50
2022-09-23T07:36:16.643Z,15.50
2022-09-23T07:38:45.922Z,15.50
2022-09-23T07:41:16.916Z,15.60
2022-09-23T07:43:46.120Z,15.60
2022-09-23T07:46:17.508Z,15.70
2022-09-23T07:48:46.870Z,15.70
2022-09-23T07:51:21.472Z,15.70
2022-09-23T07:53:50.634Z,15.80
2022-09-23T07:56:19.902Z,15.90
2022-09-23T07:59:00.156Z,15.90
2022-09-23T08:01:31.691Z,15.90
2022-09-23T08:04:01.694Z,16.00
2022-09-23T08:06:30.137Z,16.10
2022-09-23T08:08:59.217Z,16.10
2022-09-23T08:11:28.081Z,16.10
2022-09-23T08:13:57.253Z,16.10
2022-09-23T08:16:25.607Z,16.10
2022-09-23T08:18:55.369Z,16.20
2022-09-23T08:21:24.295Z,16.20
2022-09-23T08:23:52.655Z,16.10
2022-09-23T08:26:22.473Z,16.10
2022-09-23T08:28:54.578Z,16.10
2022-09-23T08:31:23.547Z,16.00
2022-09-23T08:33:57.014Z,16.00
2022-09-23T08:36:26.001Z,16.10
2022-09-23T08:38:54.928Z,16.10
2022-09-23T08:41:31.689Z,16.20
2022-09-23T08:44:05.689Z,16.20
2022-09-23T08:46:37.716Z,16.20
2022-09-23T08:49:08.319Z,16.30
2022-09-23T08:51:42.488Z,16.30
2022-09-23T08:54:11.509Z,16.40
2022-09-23T08:56:40.103Z,16.50
2022-09-23T08:59:14.800Z,16.50
2022-09-23T09:01:45.910Z,16.60
2022-09-23T09:04:21.550Z,16.60
2022-09-23T09:06:55.900Z,16.60
2022-09-23T09:09:31.575Z,16.70
2022-09-23T09:12:06.020Z,16.70
2022-09-23T09:14:44.465Z,16.80
2022-09-23T09:17:17.959Z,16.80
2022-09-23T09:19:59.617Z,16.80
2022-09-23T09:22:43.355Z,16.90
2022-09-23T09:25:24.161Z,16.90
2022-09-23T09:27:53.823Z,17.00
2022-09-23T09:30:22.253Z,16.90
2022-09-23T09:32:56.722Z,16.90
2022-09-23T09:35:36.751Z,17.00
2022-09-23T09:38:06.248Z,17.00
2022-09-23T09:40:35.515Z,17.10
2022-09-23T09:43:04.607Z,17.10
2022-09-23T09:45:57.911Z,17.20
2022-09-23T09:48:32.783Z,17.30
2022-09-23T09:51:19.665Z,17.30
2022-09-23T09:53:47.735Z,17.30
2022-09-23T09:56:17.520Z,17.40
2022-09-23T09:58:49.600Z,17.50
2022-09-23T10:01:25.732Z,17.60
2022-09-23T10:03:59.204Z,17.60
2022-09-23T10:06:32.478Z,17.60
2022-09-23T10:09:17.094Z,17.60
2022-09-23T10:12:03.610Z,17.70
2022-09-23T10:14:31.750Z,17.70
2022-09-23T10:17:05.610Z,17.70
2022-09-23T10:19:37.183Z,17.80
2022-09-23T10:22:18.169Z,17.90
2022-09-23T10:24:50.923Z,17.90
2022-09-23T10:27:28.401Z,18.00
2022-09-23T10:29:58.794Z,18.00
2022-09-23T10:32:30.030Z,18.00
2022-09-23T10:35:02.771Z,18.00
2022-09-23T10:37:38.523Z,18.00
2022-09-23T10:40:37.513Z,18.10
2022-09-23T10:43:46.247Z,18.10
2022-09-23T10:46:39.792Z,18.20
2022-09-23T10:49:55.293Z,18.30
2022-09-23T10:52:53.986Z,18.30
2022-09-23T10:55:42.338Z,18.30
2022-09-23T10:58:52.910Z,18.30
2022-09-23T11:01:32.180Z,18.30
2022-09-23T11:04:29.546Z,18.30
2022-09-23T11:07:14.379Z,18.30
2022-09-23T11:09:58.825Z,18.30
2022-09-23T11:12:39.825Z,18.40
2022-09-23T11:15:22.749Z,18.40
2022-09-23T11:18:22.233Z,18.50
2022-09-23T11:21:03.228Z,18.50
2022-09-23T11:24:06.276Z,18.60
2022-09-23T11:26:47.667Z,18.60
2022-09-23T11:29:38.095Z,18.70
2022-09-23T11:32:29.686Z,18.80
2022-09-23T11:35:13.281Z,18.80
2022-09-23T11:37:47.694Z,18.80
2022-09-23T11:40:22.862Z,18.80
2022-09-23T11:43:00.258Z,18.80
2022-09-23T11:45:35.383Z,18.80
2022-09-23T11:48:11.273Z,18.80
2022-09-23T11:50:52.196Z,18.80
2022-09-23T11:53:29.988Z,18.90
2022-09-23T11:56:05.155Z,18.90
2022-09-23T11:58:45.454Z,19.00
2022-09-23T12:01:37.261Z,19.10
2022-09-23T12:04:20.295Z,19.10
2022-09-23T12:06:53.723Z,19.10
2022-09-23T12:09:47.175Z,19.20
2022-09-23T12:12:26.307Z,19.20
2022-09-23T12:15:04.137Z,19.20
2022-09-23T12:17:51.985Z,19.10
2022-09-23T12:20:37.446Z,19.20
2022-09-23T12:23:22.764Z,19.20
2022-09-23T12:25:56.739Z,19.30
2022-09-23T12:28:33.036Z,19.30
2022-09-23T12:31:06.354Z,19.30
2022-09-23T12:33:38.447Z,19.30
2022-09-23T12:36:11.990Z,19.30
2022-09-23T12:38:51.315Z,19.40
2022-09-23T12:41:28.576Z,19.50
2022-09-23T12:44:01.789Z,19.50
2022-09-23T12:46:35.126Z,19.50
2022-09-23T12:49:05.044Z,19.50
2022-09-23T12:51:34.708Z,19.50
2022-09-23T12:54:26.664Z,19.60
2022-09-23T12:57:06.043Z,19.60
2022-09-23T13:00:01.998Z,19.50
2022-09-23T13:02:38.515Z,19.60
2022-09-23T13:05:39.773Z,19.60
2022-09-23T13:08:14.188Z,19.60
2022-09-23T13:10:49.973Z,19.60
2022-09-23T13:13:25.289Z,19.60
2022-09-23T13:15:55.036Z,19.60
2022-09-23T13:18:58.900Z,19.60
2022-09-23T13:22:09.795Z,19.70
2022-09-23T13:24:46.389Z,19.70
2022-09-23T13:27:27.895Z,19.80
2022-09-23T13:30:01.216Z,19.80
2022-09-23T13:32:33.619Z,19.80
2022-09-23T13:35:05.036Z,19.80
2022-09-23T13:37:46.388Z,19.90
2022-09-23T13:40:21.704Z,20.00
2022-09-23T13:42:55.386Z,20.00
2022-09-23T13:45:26.064Z,20.00
2022-09-23T13:47:59.503Z,20.00
2022-09-23T13:50:34.123Z,20.00
2022-09-23T13:53:09.261Z,20.00
2022-09-23T13:55:39.278Z,20.10
2022-09-23T13:58:17.428Z,20.00
2022-09-23T14:00:46.042Z,20.10
2022-09-23T14:03:26.020Z,20.10
2022-09-23T14:05:55.607Z,20.10
2022-09-23T14:08:25.871Z,20.10
2022-09-23T14:10:55.276Z,20.20
2022-09-23T14:13:26.390Z,20.20
2022-09-23T14:15:58.225Z,20.20
2022-09-23T14:18:36.544Z,20.20
2022-09-23T14:21:05.204Z,20.20
2022-09-23T14:23:34.754Z,20.20
2022-09-23T14:26:03.693Z,20.20
2022-09-23T14:28:32.052Z,20.20
2022-09-23T14:31:00.758Z,20.20
2022-09-23T14:33:33.131Z,20.20
2022-09-23T14:36:06.639Z,20.20
2022-09-23T14:38:50.655Z,20.20
2022-09-23T14:41:23.904Z,20.20
2022-09-23T14:43:58.536Z,20.20
2022-09-23T14:46:28.515Z,20.10
2022-09-23T14:49:00.525Z,20.10
2022-09-23T14:51:40.372Z,20.20
2022-09-23T14:54:42.578Z,20.20
2022-09-23T14:57:27.113Z,20.20
2022-09-23T14:59:59.710Z,20.20
2022-09-23T15:02:36.530Z,20.10
2022-09-23T15:05:32.101Z,20.20
2022-09-23T15:08:03.948Z,20.20
2022-09-23T15:10:37.541Z,20.10
2022-09-23T15:13:10.192Z,20.20
2022-09-23T15:15:38.528Z,20.20
2022-09-23T15:18:08.737Z,20.20
2022-09-23T15:20:37.691Z,20.30
2022-09-23T15:23:05.860Z,20.20
2022-09-23T15:25:40.655Z,20.20
2022-09-23T15:28:23.646Z,20.30
2022-09-23T15:30:51.957Z,20.30
2022-09-23T15:33:25.065Z,20.30
2022-09-23T15:35:53.304Z,20.30
2022-09-23T15:38:21.956Z,20.30
2022-09-23T15:40:51.750Z,20.30
2022-09-23T15:43:22.051Z,20.30
2022-09-23T15:45:52.260Z,20.30
2022-09-23T15:48:22.975Z,20.40
2022-09-23T15:50:51.894Z,20.40
2022-09-23T15:53:22.809Z,20.40
2022-09-23T15:55:52.605Z,20.40
2022-09-23T15:58:21.294Z,20.40
2022-09-23T16:00:56.080Z,20.40
2022-09-23T16:03:28.984Z,20.40
2022-09-23T16:06:03.087Z,20.40
2022-09-23T16:08:33.099Z,20.50
2022-09-23T16:11:02.974Z,20.50
2022-09-23T16:13:31.218Z,20.40
2022-09-23T16:15:59.458Z,20.40
2022-09-23T16:18:27.661Z,20.40
2022-09-23T16:20:55.864Z,20.30
2022-09-23T16:23:34.635Z,20.30
2022-09-23T16:26:13.957Z,20.20
2022-09-23T16:28:42.212Z,20.20
2022-09-23T16:31:11.308Z,20.20
2022-09-23T16:33:39.916Z,20.20
2022-09-23T16:36:14.530Z,20.20
2022-09-23T16:38:42.647Z,20.20
2022-09-23T16:41:12.148Z,20.20
2022-09-23T16:43:41.317Z,20.20
2022-09-23T16:46:12.249Z,20.20
2022-09-23T16:48:41.492Z,20.20
2022-09-23T16:51:14.298Z,20.20
2022-09-23T16:53:42.772Z,20.20
2022-09-23T16:56:13.615Z,20.10
2022-09-23T16:58:42.033Z,20.10
2022-09-23T17:01:34.592Z,20.10
2022-09-23T17:04:03.673Z,20.10
2022-09-23T17:06:31.895Z,20.00
2022-09-23T17:09:00.314Z,20.00
2022-09-23T17:11:34.116Z,20.10
2022-09-23T17:14:02.641Z,20.10
2022-09-23T17:16:33.009Z,20.00
2022-09-23T17:19:06.540Z,20.10
2022-09-23T17:24:57.923Z,20.00
2022-09-23T17:27:27.511Z,20.00
2022-09-23T17:29:55.656Z,20.00
2022-09-23T17:32:23.819Z,19.90
2022-09-23T17:34:52.048Z,19.90
2022-09-23T17:37:20.211Z,19.90
2022-09-23T17:39:48.362Z,19.90
2022-09-23T17:42:18.484Z,19.80
2022-09-23T17:44:48.102Z,19.70
2022-09-23T17:47:16.214Z,19.70
2022-09-23T17:49:46.970Z,19.70
2022-09-23T17:52:15.106Z,19.70
2022-09-23T17:54:43.662Z,19.70
2022-09-23T17:57:12.026Z,19.70
2022-09-23T17:59:40.203Z,19.70
2022-09-23T18:02:15.500Z,19.70
2022-09-23T18:04:44.031Z,19.70
2022-09-23T18:07:12.174Z,19.70
2022-09-23T18:09:40.375Z,19.70
2022-09-23T18:12:09.380Z,19.70
2022-09-23T18:14:37.567Z,19.70
2022-09-23T18:17:05.714Z,19.70
2022-09-23T18:19:35.273Z,19.60
2022-09-23T18:22:03.456Z,19.70
2022-09-23T18:24:33.629Z,19.60
2022-09-23T18:27:02.392Z,19.60
2022-09-23T18:29:34.776Z,19.60
2022-09-23T18:32:05.616Z,19.60
2022-09-23T18:34:36.630Z,19.60
2022-09-23T18:37:15.069Z,19.60
2022-09-23T18:39:44.873Z,19.60
2022-09-23T18:42:13.101Z,19.50
2022-09-23T18:44:42.763Z,19.50
2022-09-23T18:47:32.437Z,19.50
2022-09-23T18:50:21.391Z,19.50
2022-09-23T18:52:51.588Z,19.50
2022-09-23T18:55:22.064Z,19.40
2022-09-23T18:57:53.763Z,19.40
2022-09-23T19:00:23.679Z,19.40
2022-09-23T19:02:53.723Z,19.30
2022-09-23T19:05:23.279Z,19.40
2022-09-23T19:07:51.439Z,19.40
2022-09-23T19:10:20.405Z,19.30
2022-09-23T19:12:48.847Z,19.30
2022-09-23T19:15:19.509Z,19.30
2022-09-23T19:17:49.333Z,19.30
2022-09-23T19:20:20.876Z,19.30
2022-09-23T19:22:50.384Z,19.30
2022-09-23T19:25:21.190Z,19.20
2022-09-23T19:27:52.174Z,19.30
2022-09-23T19:30:23.895Z,19.20
2022-09-23T19:32:52.063Z,19.20
2022-09-23T19:35:23.497Z,19.20
2022-09-23T19:37:56.385Z,19.20
2022-09-23T19:40:26.186Z,19.20
2022-09-23T19:42:58.027Z,19.20
2022-09-23T19:45:30.159Z,19.20
2022-09-23T19:47:59.942Z,19.20
2022-09-23T19:50:34.394Z,19.20
2022-09-23T19:53:06.353Z,19.20
2022-09-23T19:55:38.278Z,19.20
2022-09-23T19:58:10.351Z,19.20
2022-09-23T20:00:40.256Z,19.20
2022-09-23T20:03:09.825Z,19.20
2022-09-23T20:05:38.046Z,19.20
2022-09-23T20:08:10.845Z,19.10
2022-09-23T20:10:42.797Z,19.10
2022-09-23T20:13:16.188Z,19.10
2022-09-23T20:15:47.353Z,19.10
2022-09-23T20:18:18.495Z,19.10
2022-09-23T20:20:54.426Z,19.10
2022-09-23T20:23:28.287Z,19.10
2022-09-23T20:26:15.829Z,19.10
2022-09-23T20:28:45.820Z,19.10
2022-09-23T20:31:15.686Z,19.00
2022-09-23T20:33:45.587Z,19.10
2022-09-23T20:36:17.136Z,19.00
2022-09-23T20:38:47.846Z,19.00
2022-09-23T20:41:18.390Z,19.00
2022-09-23T20:43:49.144Z,19.00
2022-09-23T20:46:17.575Z,19.00
2022-09-23T20:48:49.102Z,19.00
2022-09-23T20:51:19.258Z,19.00
2022-09-23T20:53:52.861Z,19.00
2022-09-23T20:56:22.631Z,19.00
2022-09-23T20:58:52.560Z,19.00
2022-09-23T21:01:22.849Z,18.90
2022-09-23T21:03:57.507Z,18.90
2022-09-23T21:06:26.697Z,18.90
2022-09-23T21:08:56.452Z,18.90
2022-09-23T21:11:26.400Z,18.90
2022-09-23T21:13:54.681Z,18.90
2022-09-23T21:16:24.546Z,18.90
2022-09-23T21:18:53.872Z,18.90
2022-09-23T21:21:23.086Z,18.90
2022-09-23T21:23:51.903Z,18.90
2022-09-23T21:26:25.051Z,18.90
2022-09-23T21:28:54.713Z,18.90
2022-09-23T21:31:25.685Z,18.90
2022-09-23T21:33:55.442Z,18.90
2022-09-23T21:36:24.895Z,18.90
2022-09-23T21:38:55.933Z,18.90
2022-09-23T21:41:26.856Z,18.90
2022-09-23T21:43:56.714Z,18.90
2022-09-23T21:46:26.381Z,18.90
2022-09-23T21:48:57.581Z,18.90
2022-09-23T21:51:28.813Z,18.90
2022-09-23T21:53:59.321Z,18.90
2022-09-23T21:56:30.383Z,18.80
2022-09-23T21:59:00.713Z,18.90
2022-09-23T22:01:30.969Z,18.80
2022-09-23T22:04:05.292Z,18.80
2022-09-23T22:06:33.667Z,18.80
2022-09-23T22:09:03.548Z,18.80
2022-09-23T22:11:51.280Z,18.80
2022-09-23T22:14:21.104Z,18.80
2022-09-23T22:16:50.670Z,18.80
2022-09-23T22:19:18.928Z,18.80
2022-09-23T22:21:47.118Z,18.80
2022-09-23T22:24:15.705Z,18.70
2022-09-23T22:26:46.165Z,18.80
2022-09-23T22:29:33.097Z,18.80
2022-09-23T22:32:20.048Z,18.70
2022-09-23T22:34:50.446Z,18.70
2022-09-23T22:37:22.540Z,18.70
2022-09-23T22:39:50.816Z,18.70
2022-09-23T22:42:22.346Z,18.70
2022-09-23T22:44:51.167Z,18.70
2022-09-23T22:47:20.277Z,18.70
2022-09-23T22:49:48.907Z,18.60
2022-09-23T22:52:21.180Z,18.70
2022-09-23T22:54:49.412Z,18.60
2022-09-23T22:57:20.233Z,18.60
2022-09-23T22:59:48.945Z,18.60
2022-09-23T23:02:17.866Z,18.60
2022-09-23T23:04:48.737Z,18.60
2022-09-23T23:07:21.245Z,18.60
2022-09-23T23:09:50.912Z,18.60
2022-09-23T23:12:21.230Z,18.60
2022-09-23T23:14:50.192Z,18.60
2022-09-23T23:17:18.943Z,18.60
2022-09-23T23:19:47.497Z,18.60
2022-09-23T23:22:15.721Z,18.60
2022-09-23T23:24:44.149Z,18.60
2022-09-23T23:27:12.395Z,18.60
2022-09-23T23:29:42.155Z,18.60
2022-09-23T23:32:10.771Z,18.60
2022-09-23T23:34:39.016Z,18.60
2022-09-23T23:37:07.265Z,18.60
2022-09-23T23:39:35.594Z,18.60
2022-09-23T23:42:04.826Z,18.50
2022-09-23T23:44:34.515Z,18.60
2022-09-23T23:47:04.495Z,18.60
2022-09-23T23:49:32.771Z,18.50
2022-09-23T23:52:01.032Z,18.50
2022-09-23T23:54:29.249Z,18.50
2022-09-23T23:56:57.400Z,18.50
2022-09-23T23:59:25.980Z,18.50
